Time;durP1;ratioP1;P1;durP2;ratioP2;P2;SDS_P1;SDS_P2;PMS_P1;PMS_P2;Temp;Humidity;BMP_temperature;BMP_pressure;BME280_temperature;BME280_humidity;BME280_pressure;Samples;Min_cycle;Max_cycle;Signal;HPM_P1;HPM_P2
2021/10/06 00:01:16;;;;;;;5.47;3.20;;;;;;;-145.50;100.00;65435.88;4989523;28;20507;-63
2021/10/06 00:03:43;;;;;;;5.65;3.30;;;;;;;-145.50;100.00;65435.88;4985027;28;20060;-63
2021/10/06 00:06:09;;;;;;;6.10;3.38;;;;;;;-145.50;100.00;65435.88;4981557;28;20046;-63
2021/10/06 00:08:36;;;;;;;8.10;3.33;;;;;;;-145.50;100.00;65435.88;4979175;28;20050;-63
2021/10/06 00:11:03;;;;;;;6.80;3.45;;;;;;;-145.50;100.00;65435.88;4990465;28;20057;-63
2021/10/06 00:13:29;;;;;;;8.20;3.83;;;;;;;-145.50;100.00;65435.88;4988448;28;20108;-63
2021/10/06 00:15:56;;;;;;;5.45;2.67;;;;;;;-145.50;100.00;65435.88;4980736;28;20085;-62
2021/10/06 00:18:24;;;;;;;8.60;3.08;;;;;;;-145.50;100.00;65435.88;4990564;28;20061;-63
2021/10/06 00:20:50;;;;;;;7.72;2.85;;;;;;;-145.50;100.00;65435.88;4977250;28;20054;-63
2021/10/06 00:23:17;;;;;;;5.00;2.72;;;;;;;-145.50;100.00;65435.88;4989656;28;20493;-63
2021/10/06 00:25:43;;;;;;;8.80;3.10;;;;;;;-145.50;100.00;65435.88;4982976;28;20514;-62
2021/10/06 00:28:10;;;;;;;5.15;2.85;;;;;;;-145.50;100.00;65435.88;4989402;28;20145;-63
2021/10/06 00:30:36;;;;;;;5.68;2.42;;;;;;;-145.50;100.00;65435.88;4983421;28;20065;-63
2021/10/06 00:33:03;;;;;;;9.40;2.97;;;;;;;-145.50;100.00;65435.88;4985811;28;20095;-63
2021/10/06 00:35:29;;;;;;;6.45;2.40;;;;;;;-145.50;100.00;65435.88;4989794;28;20411;-62
2021/10/06 00:37:55;;;;;;;5.95;2.28;;;;;;;-145.50;100.00;65435.88;4982727;28;20055;-62
2021/10/06 00:40:22;;;;;;;8.73;2.38;;;;;;;-145.50;100.00;65435.88;4986074;28;20058;-63
2021/10/06 00:42:48;;;;;;;7.63;2.10;;;;;;;-145.50;100.00;65435.88;4984516;28;20050;-63
2021/10/06 00:45:15;;;;;;;9.20;2.35;;;;;;;-145.50;100.00;65435.88;4987881;28;20411;-63
2021/10/06 00:47:41;;;;;;;7.40;2.20;;;;;;;-145.50;100.00;65435.88;4982723;28;20061;-63
2021/10/06 00:50:08;;;;;;;8.52;2.15;;;;;;;-145.50;100.00;65435.88;4986574;28;20060;-63
2021/10/06 00:52:35;;;;;;;7.70;2.25;;;;;;;-145.50;100.00;65435.88;4987711;28;20422;-63
2021/10/06 00:55:02;;;;;;;7.75;1.75;;;;;;;-145.50;100.00;65435.88;4979684;28;20046;-63
2021/10/06 00:57:28;;;;;;;4.35;1.35;;;;;;;-145.50;100.00;65435.88;4988812;28;20050;-63
2021/10/06 00:59:56;;;;;;;4.65;2.00;;;;;;;-145.50;100.00;65435.88;4981679;28;20054;-63
2021/10/06 01:02:22;;;;;;;9.73;2.03;;;;;;;-145.50;100.00;65435.88;4981210;28;20066;-63
2021/10/06 01:04:50;;;;;;;6.35;1.52;;;;;;;-145.50;100.00;65435.88;4994838;28;20049;-63
2021/10/06 01:07:17;;;;;;;10.65;2.08;;;;;;;-145.50;100.00;65435.88;4986072;28;20086;-63
2021/10/06 01:09:45;;;;;;;9.77;1.98;;;;;;;-145.50;100.00;65435.88;4994812;28;20076;-63
2021/10/06 01:12:12;;;;;;;9.18;2.53;;;;;;;-145.50;100.00;65435.88;4997066;28;20060;-63
2021/10/06 01:14:39;;;;;;;7.05;1.60;;;;;;;-145.50;100.00;65435.88;4987628;28;20050;-63
2021/10/06 01:17:06;;;;;;;6.72;2.38;;;;;;;-145.50;100.00;65435.88;4979212;28;20054;-63
2021/10/06 01:19:33;;;;;;;8.73;1.77;;;;;;;-145.50;100.00;65435.88;4993608;28;20050;-63
2021/10/06 01:21:59;;;;;;;7.00;1.60;;;;;;;-145.50;100.00;65435.88;5004538;28;20054;-63
2021/10/06 01:24:27;;;;;;;7.25;1.70;;;;;;;-145.50;100.00;65435.88;4985765;28;20061;-63
2021/10/06 01:26:54;;;;;;;7.30;1.50;;;;;;;-145.50;100.00;65435.88;4990657;28;20045;-62
2021/10/06 01:29:21;;;;;;;7.95;1.52;;;;;;;-145.50;100.00;65435.88;4985704;28;20524;-62
2021/10/06 01:31:48;;;;;;;5.43;1.55;;;;;;;-145.50;100.00;65435.88;4986974;28;20071;-63
2021/10/06 01:34:20;;;;;;;7.22;1.58;;;;;;;-145.50;100.00;65435.88;4987057;28;20061;-62
2021/10/06 01:36:49;;;;;;;8.18;1.67;;;;;;;-145.50;100.00;65435.88;4996198;28;20046;-62
2021/10/06 01:39:17;;;;;;;10.30;1.65;;;;;;;-145.50;100.00;65435.88;4987335;28;20411;-63
2021/10/06 01:41:44;;;;;;;8.10;1.35;;;;;;;-145.50;100.00;65435.88;4991666;28;20058;-63
2021/10/06 01:44:12;;;;;;;7.40;1.90;;;;;;;-145.50;100.00;65435.88;4987409;28;20400;-63
2021/10/06 01:46:39;;;;;;;8.57;2.00;;;;;;;-145.50;100.00;65435.88;4979298;28;20072;-63
2021/10/06 01:49:05;;;;;;;6.65;1.80;;;;;;;-145.50;100.00;65435.88;4991637;28;20582;-63
2021/10/06 01:51:32;;;;;;;9.38;1.80;;;;;;;-145.50;100.00;65435.88;4991912;28;20061;-64
2021/10/06 01:53:58;;;;;;;8.52;1.92;;;;;;;-145.50;100.00;65435.88;4995317;28;20554;-61
2021/10/06 01:56:25;;;;;;;4.30;1.60;;;;;;;-145.50;100.00;65435.88;4982673;28;20057;-63
2021/10/06 01:58:51;;;;;;;5.95;1.70;;;;;;;-145.50;100.00;65435.88;4987261;28;20054;-63
2021/10/06 02:01:17;;;;;;;8.07;1.52;;;;;;;-145.50;100.00;65435.88;4987635;28;20069;-63
2021/10/06 02:03:44;;;;;;;7.85;2.03;;;;;;;-145.50;100.00;65435.88;4986043;28;20062;-63
2021/10/06 02:06:11;;;;;;;7.07;1.65;;;;;;;-145.50;100.00;65435.88;4988001;28;20046;-63
2021/10/06 02:08:37;;;;;;;4.88;1.40;;;;;;;-145.50;100.00;65435.88;4985793;28;20056;-63
2021/10/06 02:11:04;;;;;;;4.65;1.38;;;;;;;-145.50;100.00;65435.88;4994490;28;20060;-63
2021/10/06 02:13:30;;;;;;;9.52;1.63;;;;;;;-145.50;100.00;65435.88;4988907;28;20058;-63
2021/10/06 02:15:57;;;;;;;10.23;1.83;;;;;;;-145.50;100.00;65435.88;4984918;28;20047;-63
2021/10/06 02:18:23;;;;;;;12.60;1.60;;;;;;;-145.50;100.00;65435.88;4991355;28;20050;-63
2021/10/06 02:20:50;;;;;;;10.20;2.72;;;;;;;-145.50;100.00;65435.88;4981084;28;20051;-64
2021/10/06 02:23:17;;;;;;;7.72;1.92;;;;;;;-145.50;100.00;65435.88;4992109;28;20056;-63
2021/10/06 02:25:43;;;;;;;5.78;1.60;;;;;;;-145.50;100.00;65435.88;4980033;28;20053;-63
2021/10/06 02:28:10;;;;;;;7.65;1.88;;;;;;;-145.50;100.00;65435.88;4991307;28;20066;-63
2021/10/06 02:30:37;;;;;;;9.23;1.52;;;;;;;-145.50;100.00;65435.88;4993188;28;20447;-63
2021/10/06 02:33:03;;;;;;;7.07;2.00;;;;;;;-145.50;100.00;65435.88;4982429;28;20052;-64
2021/10/06 02:35:30;;;;;;;7.07;2.22;;;;;;;-145.50;100.00;65435.88;4986879;28;20608;-63
2021/10/06 02:37:56;;;;;;;5.95;1.80;;;;;;;-145.50;100.00;65435.88;4978717;28;20853;-62
2021/10/06 02:40:23;;;;;;;8.68;2.70;;;;;;;-145.50;100.00;65435.88;4985424;28;20142;-63
2021/10/06 02:42:50;;;;;;;8.60;1.77;;;;;;;-145.50;100.00;65435.88;4985418;28;20050;-63
2021/10/06 02:45:19;;;;;;;6.38;1.92;;;;;;;-145.50;100.00;65435.88;4987842;28;20050;-63
2021/10/06 02:47:46;;;;;;;9.00;1.70;;;;;;;-145.50;100.00;65435.88;4993419;28;20073;-63
2021/10/06 02:50:18;;;;;;;6.45;1.85;;;;;;;-145.50;100.00;65435.88;4980846;28;20053;-64
2021/10/06 02:52:45;;;;;;;6.25;2.10;;;;;;;-145.50;100.00;65435.88;4985112;28;20947;-64
2021/10/06 02:55:12;;;;;;;8.25;1.90;;;;;;;-145.50;100.00;65435.88;4981296;28;20062;-63
2021/10/06 02:57:38;;;;;;;6.72;1.65;;;;;;;-145.50;100.00;65435.88;4990245;28;20050;-64
2021/10/06 03:00:08;;;;;;;8.82;2.03;;;;;;;-145.50;100.00;65435.88;4983233;28;20122;-64
2021/10/06 03:02:36;;;;;;;12.63;3.30;;;;;;;-145.50;100.00;65435.88;4986712;28;20054;-64
2021/10/06 03:05:03;;;;;;;8.67;2.13;;;;;;;-145.50;100.00;65435.88;4981202;28;20042;-63
2021/10/06 03:07:30;;;;;;;9.00;2.08;;;;;;;-145.50;100.00;65435.88;4980272;28;20683;-63
2021/10/06 03:09:56;;;;;;;7.18;2.10;;;;;;;-145.50;100.00;65435.88;4987862;28;20046;-63
2021/10/06 03:12:23;;;;;;;5.00;2.08;;;;;;;-145.50;100.00;65435.88;4987470;28;20149;-64
2021/10/06 03:14:49;;;;;;;13.75;2.35;;;;;;;-145.50;100.00;65435.88;4987619;28;20407;-64
2021/10/06 03:17:16;;;;;;;9.02;2.50;;;;;;;-145.50;100.00;65435.88;4987166;28;20049;-61
2021/10/06 03:19:42;;;;;;;11.02;2.47;;;;;;;-145.50;100.00;65435.88;4982717;28;20058;-62
2021/10/06 03:22:08;;;;;;;12.00;2.10;;;;;;;-145.50;100.00;65435.88;4986497;28;20427;-63
2021/10/06 03:24:35;;;;;;;9.75;2.30;;;;;;;-145.50;100.00;65435.88;4983116;28;20066;-63
2021/10/06 03:27:01;;;;;;;6.28;2.00;;;;;;;-145.50;100.00;65435.88;4989129;28;20046;-64
2021/10/06 03:29:28;;;;;;;7.53;2.15;;;;;;;-145.50;100.00;65435.88;4981266;28;20050;-64
2021/10/06 03:31:54;;;;;;;4.57;1.67;;;;;;;-145.50;100.00;65435.88;4988376;28;20054;-63
2021/10/06 03:34:21;;;;;;;9.75;2.53;;;;;;;-145.50;100.00;65435.88;4984615;28;20061;-63
2021/10/06 03:36:47;;;;;;;6.70;1.95;;;;;;;-145.50;100.00;65435.88;4991729;28;20053;-64
2021/10/06 03:39:14;;;;;;;6.30;2.35;;;;;;;-145.50;100.00;65435.88;4991218;28;20052;-64
2021/10/06 03:41:40;;;;;;;10.43;2.63;;;;;;;-145.50;100.00;65435.88;4979081;28;20404;-64
2021/10/06 03:44:07;;;;;;;6.22;2.35;;;;;;;-145.50;100.00;65435.88;4993768;28;20050;-64
2021/10/06 03:46:33;;;;;;;11.00;2.40;;;;;;;-145.50;100.00;65435.88;4979615;28;20052;-64
2021/10/06 03:49:00;;;;;;;11.60;2.67;;;;;;;-145.50;100.00;65435.88;4984674;28;20046;-63
2021/10/06 03:51:26;;;;;;;3.58;1.70;;;;;;;-145.50;100.00;65435.88;4982542;28;20052;-63
2021/10/06 03:53:52;;;;;;;8.02;2.10;;;;;;;-145.50;100.00;65435.88;4988281;28;20050;-64
2021/10/06 03:56:19;;;;;;;9.07;2.70;;;;;;;-145.50;100.00;65435.88;4991026;28;20049;-62
2021/10/06 03:58:45;;;;;;;8.07;2.17;;;;;;;-145.50;100.00;65435.88;4983644;28;20061;-63
2021/10/06 04:01:12;;;;;;;13.88;2.83;;;;;;;-145.50;100.00;65435.88;4983108;28;20058;-62
2021/10/06 04:03:38;;;;;;;7.63;2.55;;;;;;;-145.50;100.00;65435.88;4979245;28;20058;-64
2021/10/06 04:06:05;;;;;;;8.23;2.25;;;;;;;-145.50;100.00;65435.88;4986725;28;20043;-64
2021/10/06 04:08:31;;;;;;;6.63;2.22;;;;;;;-145.50;100.00;65435.88;4984549;28;20054;-64
2021/10/06 04:10:58;;;;;;;7.68;2.35;;;;;;;-145.50;100.00;65435.88;4984556;28;20050;-64
2021/10/06 04:13:25;;;;;;;6.57;1.83;;;;;;;-145.50;100.00;65435.88;4988594;28;20065;-63
2021/10/06 04:15:51;;;;;;;4.72;2.05;;;;;;;-145.50;100.00;65435.88;4983933;28;20819;-64
2021/10/06 04:18:18;;;;;;;5.45;1.88;;;;;;;-145.50;100.00;65435.88;4988378;28;20061;-63
2021/10/06 04:20:44;;;;;;;8.95;1.67;;;;;;;-145.50;100.00;65435.88;4980905;28;20480;-64
2021/10/06 04:23:12;;;;;;;7.63;2.10;;;;;;;-145.50;100.00;65435.88;4990132;28;20051;-63
2021/10/06 04:25:40;;;;;;;7.30;1.92;;;;;;;-145.50;100.00;65435.88;4983005;28;20069;-64
2021/10/06 04:28:06;;;;;;;4.53;1.80;;;;;;;-145.50;100.00;65435.88;4981779;28;20081;-64
2021/10/06 04:30:32;;;;;;;10.52;2.15;;;;;;;-145.50;100.00;65435.88;4995347;28;20419;-65
2021/10/06 04:32:59;;;;;;;8.88;1.98;;;;;;;-145.50;100.00;65435.88;4983091;28;20058;-64
2021/10/06 04:35:26;;;;;;;8.30;2.25;;;;;;;-145.50;100.00;65435.88;4991926;28;20184;-64
2021/10/06 04:37:52;;;;;;;7.30;1.58;;;;;;;-145.50;100.00;65435.88;4988461;28;20506;-64
2021/10/06 04:40:19;;;;;;;6.28;1.88;;;;;;;-145.50;100.00;65435.88;4993256;28;20689;-64
2021/10/06 04:42:46;;;;;;;7.05;1.70;;;;;;;-145.50;100.00;65435.88;4985060;28;20726;-65
2021/10/06 04:45:13;;;;;;;5.95;1.85;;;;;;;-145.50;100.00;65435.88;4985325;28;20065;-64
2021/10/06 04:47:39;;;;;;;6.75;2.30;;;;;;;-145.50;100.00;65435.88;4993169;28;20061;-64
2021/10/06 04:50:06;;;;;;;9.20;2.50;;;;;;;-145.50;100.00;65435.88;4990177;28;20494;-64
2021/10/06 04:52:33;;;;;;;10.57;2.28;;;;;;;-145.50;100.00;65435.88;4991964;28;20050;-63
2021/10/06 04:54:59;;;;;;;7.03;2.22;;;;;;;-145.50;100.00;65435.88;4992162;28;20117;-64
2021/10/06 04:57:26;;;;;;;9.15;2.00;;;;;;;-145.50;100.00;65435.88;4988627;28;20054;-63
2021/10/06 04:59:52;;;;;;;10.55;2.30;;;;;;;-145.50;100.00;65435.88;4988333;28;20068;-64
2021/10/06 05:02:19;;;;;;;10.02;2.40;;;;;;;-145.50;100.00;65435.88;4984430;28;20054;-64
2021/10/06 05:04:45;;;;;;;6.88;2.08;;;;;;;-145.50;100.00;65435.88;4992863;28;20072;-62
2021/10/06 05:07:12;;;;;;;7.15;2.15;;;;;;;-145.50;100.00;65435.88;4986293;28;20049;-63
2021/10/06 05:09:38;;;;;;;6.47;2.10;;;;;;;-145.50;100.00;65435.88;4984029;28;20060;-62
2021/10/06 05:12:05;;;;;;;9.80;2.67;;;;;;;-145.50;100.00;65435.88;4982305;28;20050;-64
2021/10/06 05:14:31;;;;;;;12.20;2.25;;;;;;;-145.50;100.00;65435.88;4987752;28;20447;-64
2021/10/06 05:16:58;;;;;;;6.20;2.35;;;;;;;-145.50;100.00;65435.88;4995475;28;20050;-64
2021/10/06 05:19:25;;;;;;;6.88;2.20;;;;;;;-145.50;100.00;65435.88;4982755;28;20050;-64
2021/10/06 05:21:51;;;;;;;7.10;2.45;;;;;;;-145.50;100.00;65435.88;4992126;28;20058;-65
2021/10/06 05:24:18;;;;;;;8.25;2.30;;;;;;;-145.50;100.00;65435.88;4989214;28;20061;-64
2021/10/06 05:26:44;;;;;;;9.27;2.33;;;;;;;-145.50;100.00;65435.88;4990117;28;20057;-64
2021/10/06 05:29:10;;;;;;;8.25;2.33;;;;;;;-145.50;100.00;65435.88;4984776;28;20056;-64
2021/10/06 05:31:37;;;;;;;8.90;2.97;;;;;;;-145.50;100.00;65435.88;4996353;28;20054;-62
2021/10/06 05:34:03;;;;;;;13.13;3.13;;;;;;;-145.50;100.00;65435.88;4996753;28;20061;-64
2021/10/06 05:36:32;;;;;;;7.55;2.10;;;;;;;-145.50;100.00;65435.88;4985043;28;20046;-64
2021/10/06 05:38:58;;;;;;;7.55;2.00;;;;;;;-145.50;100.00;65435.88;4984972;28;20053;-66
2021/10/06 05:41:25;;;;;;;8.70;2.60;;;;;;;-145.50;100.00;65435.88;4982436;28;20061;-64
2021/10/06 05:43:51;;;;;;;5.28;2.03;;;;;;;-145.50;100.00;65435.88;4989462;28;20061;-64
2021/10/06 05:46:18;;;;;;;9.13;2.40;;;;;;;-145.50;100.00;65435.88;4985843;28;20925;-64
2021/10/06 05:48:44;;;;;;;8.23;2.25;;;;;;;-145.50;100.00;65435.88;4989160;28;20058;-63
2021/10/06 05:51:11;;;;;;;7.38;2.10;;;;;;;-145.50;100.00;65435.88;4985582;28;20050;-63
2021/10/06 05:53:37;;;;;;;8.43;2.53;;;;;;;-145.50;100.00;65435.88;4979335;28;20522;-64
2021/10/06 05:56:04;;;;;;;8.77;2.72;;;;;;;-145.50;100.00;65435.88;4991339;28;20412;-64
2021/10/06 05:58:30;;;;;;;4.30;1.90;;;;;;;-145.50;100.00;65435.88;4987646;28;20058;-63
2021/10/06 06:00:57;;;;;;;5.93;2.50;;;;;;;-145.50;100.00;65435.88;4990084;28;20060;-64
2021/10/06 06:03:24;;;;;;;6.10;2.05;;;;;;;-145.50;100.00;65435.88;4989577;28;20514;-64
2021/10/06 06:05:51;;;;;;;6.60;2.40;;;;;;;-145.50;100.00;65435.88;4986666;28;20059;-64
2021/10/06 06:08:17;;;;;;;8.00;2.45;;;;;;;-145.50;100.00;65435.88;4991892;28;20057;-64
2021/10/06 06:10:44;;;;;;;7.32;2.20;;;;;;;-145.50;100.00;65435.88;4990575;28;20454;-64
2021/10/06 06:13:10;;;;;;;6.30;2.20;;;;;;;-145.50;100.00;65435.88;4992008;28;20724;-64
2021/10/06 06:15:37;;;;;;;7.78;2.65;;;;;;;-145.50;100.00;65435.88;4985577;28;20062;-66
2021/10/06 06:18:03;;;;;;;9.75;2.58;;;;;;;-145.50;100.00;65435.88;4994344;28;21044;-63
2021/10/06 06:20:30;;;;;;;4.07;2.22;;;;;;;-145.50;100.00;65435.88;4984013;28;20054;-64
2021/10/06 06:22:56;;;;;;;5.63;2.22;;;;;;;-145.50;100.00;65435.88;4998335;28;20058;-62
2021/10/06 06:25:23;;;;;;;8.85;2.85;;;;;;;-145.50;100.00;65435.88;4995923;28;20120;-63
2021/10/06 06:27:50;;;;;;;12.02;3.20;;;;;;;-145.50;100.00;65435.88;4982259;28;20062;-64
2021/10/06 06:30:17;;;;;;;10.98;2.92;;;;;;;-145.50;100.00;65435.88;4986848;28;20060;-64
2021/10/06 06:32:43;;;;;;;5.57;2.65;;;;;;;-145.50;100.00;65435.88;4980984;28;20288;-64
2021/10/06 06:35:10;;;;;;;5.03;2.25;;;;;;;-145.50;100.00;65435.88;4984079;28;20054;-64
2021/10/06 06:37:38;;;;;;;5.90;2.38;;;;;;;-145.50;100.00;65435.88;4992965;28;20089;-63
2021/10/06 06:40:06;;;;;;;4.15;2.22;;;;;;;-145.50;100.00;65435.88;4983325;28;20057;-64
2021/10/06 06:42:32;;;;;;;10.50;2.87;;;;;;;-145.50;100.00;65435.88;4990500;28;20054;-63
2021/10/06 06:44:58;;;;;;;9.18;2.58;;;;;;;-145.50;100.00;65435.88;4978650;28;20085;-62
2021/10/06 06:47:25;;;;;;;6.25;2.45;;;;;;;-145.50;100.00;65435.88;4987593;28;20755;-64
2021/10/06 06:49:53;;;;;;;6.20;2.50;;;;;;;-145.50;100.00;65435.88;4979948;28;20056;-63
2021/10/06 06:52:20;;;;;;;8.43;3.00;;;;;;;-145.50;100.00;65435.88;4989591;28;20064;-64
2021/10/06 06:54:46;;;;;;;7.40;2.97;;;;;;;-145.50;100.00;65435.88;4988056;28;20061;-64
2021/10/06 06:57:13;;;;;;;6.15;2.63;;;;;;;-145.50;100.00;65435.88;4987133;28;20403;-64
2021/10/06 06:59:41;;;;;;;;;;;;;;;-145.50;100.00;65435.88;4988396;28;20054;-64
2021/10/06 07:02:09;;;;;;;10.52;2.80;;;;;;;-145.50;100.00;65435.88;4975002;28;19937;-64
2021/10/06 07:04:36;;;;;;;8.48;2.78;;;;;;;-145.50;100.00;65435.88;4985704;28;20054;-63
2021/10/06 07:07:04;;;;;;;8.32;3.25;;;;;;;-145.50;100.00;65435.88;4984530;28;20046;-63
2021/10/06 07:09:31;;;;;;;6.63;2.45;;;;;;;-145.50;100.00;65435.88;4986772;28;20050;-64
2021/10/06 07:11:57;;;;;;;7.07;2.45;;;;;;;-145.50;100.00;65435.88;4990035;28;20149;-64
2021/10/06 07:14:24;;;;;;;6.63;2.80;;;;;;;-145.50;100.00;65435.88;4977493;28;20057;-64
2021/10/06 07:16:50;;;;;;;7.00;3.00;;;;;;;-145.50;100.00;65435.88;4991040;28;20427;-64
2021/10/06 07:19:17;;;;;;;7.78;2.80;;;;;;;-145.50;100.00;65435.88;4984231;28;20319;-64
2021/10/06 07:21:44;;;;;;;9.85;2.90;;;;;;;-145.50;100.00;65435.88;4988934;28;20050;-63
2021/10/06 07:24:12;;;;;;;5.75;2.72;;;;;;;-145.50;100.00;65435.88;5000128;28;20050;-64
2021/10/06 07:26:39;;;;;;;7.88;2.55;;;;;;;-145.50;100.00;65435.88;4985391;28;20061;-64
2021/10/06 07:29:05;;;;;;;8.05;2.80;;;;;;;-145.50;100.00;65435.88;4991693;28;20491;-64
2021/10/06 07:31:32;;;;;;;5.72;2.70;;;;;;;-145.50;100.00;65435.88;4982918;28;20068;-64
2021/10/06 07:33:58;;;;;;;6.30;2.63;;;;;;;-145.50;100.00;65435.88;4993674;28;20050;-65
2021/10/06 07:36:25;;;;;;;10.63;2.85;;;;;;;-145.50;100.00;65435.88;4983436;28;20077;-64
2021/10/06 07:38:53;;;;;;;6.25;3.15;;;;;;;-145.50;100.00;65435.88;4984384;28;20511;-64
2021/10/06 07:41:20;;;;;;;7.10;2.70;;;;;;;-145.50;100.00;65435.88;4983925;28;20053;-63
2021/10/06 07:43:47;;;;;;;6.88;2.45;;;;;;;-145.50;100.00;65435.88;4984886;28;20487;-64
2021/10/06 07:46:13;;;;;;;4.90;2.53;;;;;;;-145.50;100.00;65435.88;4991148;28;20049;-64
2021/10/06 07:48:40;;;;;;;5.95;2.47;;;;;;;-145.50;100.00;65435.88;4979123;28;20052;-64
2021/10/06 07:51:07;;;;;;;7.80;2.58;;;;;;;-145.50;100.00;65435.88;4989233;28;20057;-64
2021/10/06 07:53:33;;;;;;;5.70;2.80;;;;;;;-145.50;100.00;65435.88;4974255;28;20350;-64
2021/10/06 07:56:00;;;;;;;5.93;2.50;;;;;;;-145.50;100.00;65435.88;4986623;28;20050;-64
2021/10/06 07:58:26;;;;;;;6.38;3.00;;;;;;;-145.50;100.00;65435.88;4994758;28;20050;-64
2021/10/06 08:00:52;;;;;;;5.88;3.40;;;;;;;-145.50;100.00;65435.88;4985645;28;20059;-64
2021/10/06 08:03:19;;;;;;;9.77;3.20;;;;;;;-145.50;100.00;65435.88;4985220;28;20058;-64
2021/10/06 08:05:47;;;;;;;6.55;3.20;;;;;;;-145.50;100.00;65435.88;4976963;28;20057;-64
2021/10/06 08:08:15;;;;;;;9.00;3.08;;;;;;;-145.50;100.00;65435.88;4983490;28;20434;-64
2021/10/06 08:10:41;;;;;;;5.20;3.22;;;;;;;-145.50;100.00;65435.88;4987769;28;20050;-65
2021/10/06 08:13:07;;;;;;;5.22;2.65;;;;;;;-145.50;100.00;65435.88;4996412;28;20076;-64
2021/10/06 08:15:36;;;;;;;6.85;2.28;;;;;;;-145.50;100.00;65435.88;4995530;28;20056;-65
2021/10/06 08:18:03;;;;;;;8.00;3.67;;;;;;;-145.50;100.00;65435.88;4990683;28;20475;-64
2021/10/06 08:20:33;;;;;;;5.18;2.90;;;;;;;-145.50;100.00;65435.88;4994969;28;20482;-64
2021/10/06 08:23:01;;;;;;;7.13;2.85;;;;;;;-145.50;100.00;65435.88;4994489;28;20046;-64
2021/10/06 08:25:28;;;;;;;6.63;3.05;;;;;;;-145.50;100.00;65435.88;4995319;28;20699;-64
2021/10/06 08:27:55;;;;;;;4.57;2.60;;;;;;;-145.50;100.00;65435.88;4984112;28;20146;-64
2021/10/06 08:30:23;;;;;;;4.60;2.78;;;;;;;-145.50;100.00;65435.88;4989005;28;20494;-64
2021/10/06 08:32:50;;;;;;;4.03;2.90;;;;;;;-145.50;100.00;65435.88;4988346;28;20058;-64
2021/10/06 08:35:16;;;;;;;9.90;3.78;;;;;;;-145.50;100.00;65435.88;4991012;28;20054;-64
2021/10/06 08:37:43;;;;;;;7.95;3.05;;;;;;;-145.50;100.00;65435.88;4993241;28;20050;-65
2021/10/06 08:40:10;;;;;;;7.40;2.85;;;;;;;-145.50;100.00;65435.88;4987177;28;20164;-64
2021/10/06 08:42:39;;;;;;;6.97;3.00;;;;;;;-145.50;100.00;65435.88;5000319;28;20485;-64
2021/10/06 08:45:07;;;;;;;3.38;2.72;;;;;;;-145.50;100.00;65435.88;4985589;28;20060;-64
2021/10/06 08:47:39;;;;;;;5.05;2.80;;;;;;;-145.50;100.00;65435.88;4985346;28;20304;-64
2021/10/06 08:50:11;;;;;;;4.90;2.30;;;;;;;-145.50;100.00;65435.88;4987704;28;20074;-64
2021/10/06 08:52:38;;;;;;;5.38;2.83;;;;;;;-145.50;100.00;65435.88;4989600;28;20065;-64
2021/10/06 08:55:07;;;;;;;5.13;2.55;;;;;;;-145.50;100.00;65435.88;4991549;28;20054;-64
2021/10/06 08:57:34;;;;;;;6.32;3.30;;;;;;;-145.50;100.00;65435.88;4989530;28;20055;-64
2021/10/06 09:00:00;;;;;;;5.93;2.42;;;;;;;-145.50;100.00;65435.88;4984691;28;20310;-64
2021/10/06 09:02:39;;;;;;;3.90;2.33;;;;;;;-145.50;100.00;65435.88;4985117;28;20095;-63
2021/10/06 09:05:07;;;;;;;2.67;2.30;;;;;;;-145.50;100.00;65435.88;4987051;28;20395;-64
2021/10/06 09:08:12;;;;;;;2.70;2.45;;;;;;;-145.50;100.00;65435.88;4983910;28;20886;-64
2021/10/06 09:10:45;;;;;;;4.95;2.20;;;;;;;-145.50;100.00;65435.88;4991846;28;20054;-63
2021/10/06 09:13:12;;;;;;;4.00;2.20;;;;;;;-145.50;100.00;65435.88;4975505;28;20054;-63
2021/10/06 09:15:49;;;;;;;4.35;2.65;;;;;;;-145.50;100.00;65435.88;4991136;28;20053;-63
2021/10/06 09:18:19;;;;;;;4.55;2.33;;;;;;;-145.50;100.00;65435.88;4999706;28;20046;-64
2021/10/06 09:20:47;;;;;;;4.57;2.42;;;;;;;-145.50;100.00;65435.88;4985156;28;20412;-64
2021/10/06 09:23:16;;;;;;;5.20;2.42;;;;;;;-145.50;100.00;65435.88;5002184;28;20083;-64
2021/10/06 09:25:49;;;;;;;7.53;2.85;;;;;;;-145.50;100.00;65435.88;4982879;28;20704;-64
2021/10/06 09:28:36;;;;;;;2.97;2.53;;;;;;;-145.50;100.00;65435.88;4989013;28;20503;-64
2021/10/06 09:31:06;;;;;;;4.30;2.58;;;;;;;-145.50;100.00;65435.88;4984962;28;20050;-65
2021/10/06 09:33:44;;;;;;;5.32;2.78;;;;;;;-145.50;100.00;65435.88;4988444;28;20046;-64
2021/10/06 09:36:29;;;;;;;4.55;2.30;;;;;;;-145.50;100.00;65435.88;4986622;28;20055;-64
2021/10/06 09:39:04;;;;;;;7.85;2.70;;;;;;;-145.50;100.00;65435.88;4991927;28;20045;-65
2021/10/06 09:41:41;;;;;;;7.10;2.90;;;;;;;-145.50;100.00;65435.88;4983312;28;20773;-65
2021/10/06 09:44:09;;;;;;;7.70;3.20;;;;;;;-145.50;100.00;65435.88;4990233;28;20052;-65
2021/10/06 09:46:58;;;;;;;7.93;3.10;;;;;;;-145.50;100.00;65435.88;4992247;28;20058;-64
2021/10/06 09:49:30;;;;;;;7.10;3.30;;;;;;;-145.50;100.00;65435.88;4987201;28;20050;-65
2021/10/06 09:52:15;;;;;;;9.38;3.53;;;;;;;-145.50;100.00;65435.88;4988784;28;20047;-64
2021/10/06 09:54:56;;;;;;;7.32;2.58;;;;;;;-145.50;100.00;65435.88;4983559;28;20069;-64
2021/10/06 09:57:37;;;;;;;5.40;2.75;;;;;;;-145.50;100.00;65435.88;4993071;28;20061;-65
2021/10/06 10:00:07;;;;;;;7.15;2.33;;;;;;;-145.50;100.00;65435.88;4985918;28;20057;-65
2021/10/06 10:02:35;;;;;;;6.95;2.05;;;;;;;-145.50;100.00;65435.88;4986552;28;20768;-65
2021/10/06 10:05:03;;;;;;;7.63;1.80;;;;;;;-145.50;100.00;65435.88;4982695;28;20054;-64
2021/10/06 10:07:30;;;;;;;6.80;2.30;;;;;;;-145.50;100.00;65435.88;4983160;28;20050;-64
2021/10/06 10:09:57;;;;;;;11.10;3.30;;;;;;;-145.50;100.00;65435.88;4985545;28;20133;-64
2021/10/06 10:12:25;;;;;;;8.20;3.92;;;;;;;-145.50;100.00;65435.88;4983062;28;20118;-65
2021/10/06 10:14:53;;;;;;;9.85;3.60;;;;;;;-145.50;100.00;65435.88;4990742;28;20137;-65
2021/10/06 10:17:20;;;;;;;12.20;3.88;;;;;;;-145.50;100.00;65435.88;4982349;28;20058;-65
2021/10/06 10:19:54;;;;;;;12.15;4.30;;;;;;;-145.50;100.00;65435.88;4991444;28;20050;-64
2021/10/06 10:22:24;;;;;;;10.60;3.55;;;;;;;-145.50;100.00;65435.88;4977810;28;20060;-65
2021/10/06 10:24:52;;;;;;;6.97;3.55;;;;;;;-145.50;100.00;65435.88;4987546;28;20862;-65
2021/10/06 10:27:20;;;;;;;9.75;3.88;;;;;;;-145.50;100.00;65435.88;4990987;28;20054;-66
2021/10/06 10:30:04;;;;;;;8.77;3.72;;;;;;;-145.50;100.00;65435.88;4981622;28;20072;-66
2021/10/06 10:32:45;;;;;;;12.52;4.20;;;;;;;-145.50;100.00;65435.88;4986775;28;20070;-64
2021/10/06 10:35:16;;;;;;;10.32;3.97;;;;;;;-145.50;100.00;65435.88;4979913;28;20065;-65
2021/10/06 10:37:45;;;;;;;9.27;4.45;;;;;;;-145.50;100.00;65435.88;4986388;28;20057;-65
2021/10/06 10:40:30;;;;;;;10.35;3.60;;;;;;;-145.50;100.00;65435.88;4982707;28;20189;-62
2021/10/06 10:43:04;;;;;;;11.68;3.60;;;;;;;-145.50;100.00;65435.88;4989475;28;20065;-63
2021/10/06 10:45:44;;;;;;;11.40;4.20;;;;;;;-145.50;100.00;65435.88;4982096;28;20051;-64
2021/10/06 10:48:13;;;;;;;13.35;3.78;;;;;;;-145.50;100.00;65435.88;4988272;28;20069;-64
2021/10/06 10:50:59;;;;;;;12.38;4.03;;;;;;;-145.50;100.00;65435.88;4979941;28;20058;-64
2021/10/06 10:53:51;;;;;;;12.75;3.20;;;;;;;;;;5060331;28;20380;-65
2021/10/06 10:56:26;;;;;;;12.43;3.00;;;;;;;;;;5035633;28;20041;-64
2021/10/06 10:59:03;;;;;;;15.85;3.10;;;;;;;;;;5037629;28;20056;-64
2021/10/06 11:01:46;;;;;;;11.65;2.70;;;;;;;;;;5025484;28;20064;-64
2021/10/06 11:04:17;;;;;;;5.70;2.28;;;;;;;;;;5029469;28;20179;-64
2021/10/06 11:06:45;;;;;;;10.82;2.40;;;;;;;;;;5030740;28;20053;-64
2021/10/06 11:09:44;;;;;;;9.00;2.83;;;;;;;;;;5029751;28;20060;-65
2021/10/06 11:12:14;;;;;;;15.50;2.50;;;;;;;;;;5025872;28;20462;-65
2021/10/06 11:14:44;;;;;;;9.75;2.80;;;;;;;;;;5034355;28;20041;-64
2021/10/06 11:17:19;;;;;;;9.02;2.30;;;;;;;;;;5023380;28;20048;-65
2021/10/06 11:19:50;;;;;;;7.32;3.05;;;;;;;;;;5028389;28;20052;-64